Porto Di Livorno — IFPU2 — position and weather

sailwx.info

Track history (hours):
 
Tides and Currents Weather Stations Pressure Air Temp Water Temp Dewpoint Dewpoint Depression Visibility Wind Speed Wind Dir Waves Ship Positions

Porto Di Livorno

Last reported at 2015-Sep-03 06:33 UTC. Time now 2015-Sep-03 06:55 UTC.
Position N 43°33' E 010°18'.

Length 24 m; draft 6.1 m.

Type: Tug. MMSI: 247194299.

Date/timePositionNaut miles runAvg speedWind from/ knotsBaromVisibWave heightAir tempDewpointWater temp
2015-Sep-03 06:33N 43°33' E 010°18'0 0.0
2015-Sep-02 13:20N 43°33' E 010°17'2 2.4
2015-Sep-02 12:33N 43°35' E 010°18'1 1.0
2015-Sep-02 11:33N 43°34' E 010°18'0 0.0
2015-Sep-02 10:33N 43°34' E 010°18'0 0.0
2015-Sep-02 09:33N 43°34' E 010°18'0 0.0
2015-Sep-02 08:33N 43°34' E 010°18'0 0.0
2015-Sep-02 07:33N 43°34' E 010°18'0 0.0
2015-Sep-01 16:29N 43°34' E 010°18'0 0.0
2015-Sep-01 11:19N 43°34' E 010°18'0 0.0
2015-Sep-01 04:11N 43°34' E 010°18'0 0.0
2015-Aug-31 18:34N 43°34' E 010°18'1 0.4
2015-Aug-31 16:09N 43°34' E 010°19'2 3.7
2015-Aug-31 15:34N 43°33' E 010°17'3 2.1
2015-Aug-31 14:16N 43°35' E 010°19'1 0.8
2015-Aug-31 12:33N 43°34' E 010°18'0 0.0
2015-Aug-31 11:33N 43°34' E 010°18'1 1.1
2015-Aug-31 10:20N 43°32' E 010°17'1 1.7
2015-Aug-31 09:31N 43°34' E 010°18'0 0.0
2015-Aug-31 08:08N 43°34' E 010°18'0 0.7
2015-Aug-31 07:34N 43°34' E 010°18'0 0.3
2015-Aug-31 06:10N 43°34' E 010°18'1 0.5
2015-Aug-31 03:25N 43°32' E 010°17'1 0.7
2015-Aug-31 01:33N 43°34' E 010°18'0 0.0
2015-Aug-30 23:33N 43°34' E 010°18'0 0.0
2015-Aug-30 22:33N 43°34' E 010°18'0 0.0
2015-Aug-30 21:33N 43°34' E 010°18'0 0.0
2015-Aug-30 20:30N 43°34' E 010°18'0 0.0
2015-Aug-30 19:25N 43°34' E 010°18'0 0.0
2015-Aug-30 18:33N 43°34' E 010°18'0 0.0
2015-Aug-30 17:33N 43°34' E 010°18'0 0.0
2015-Aug-30 16:33N 43°34' E 010°18'0 0.0
2015-Aug-29 23:23N 43°34' E 010°18'0 0.0
2015-Aug-29 18:31N 43°34' E 010°18'1 0.6
2015-Aug-29 16:30N 43°35' E 010°19'1 1.2
2015-Aug-29 15:29N 43°34' E 010°18'1 1.1
2015-Aug-29 14:32N 43°33' E 010°17'1 1.0
2015-Aug-29 13:33N 43°34' E 010°18'0 0.0
2015-Aug-29 12:32N 43°34' E 010°18'0 0.1
2015-Aug-29 08:18N 43°34' E 010°18'0 0.1
2015-Aug-29 06:26N 43°34' E 010°18'1 0.0
2015-Aug-28 12:28N 43°34' E 010°18'0 0.0
2015-Aug-28 11:34N 43°34' E 010°18'1 0.9
2015-Aug-28 10:33N 43°35' E 010°18'1 0.7
2015-Aug-28 09:17N 43°34' E 010°18'0 0.0
2015-Aug-28 08:34N 43°34' E 010°18'0 0.0
2015-Aug-27 18:32N 43°34' E 010°18'0 0.0
2015-Aug-27 13:04N 43°34' E 010°18'0 0.0
2015-Aug-27 12:33N 43°34' E 010°18'0 0.0
2015-Aug-27 11:33N 43°34' E 010°18'0 0.0
2015-Aug-27 10:33N 43°34' E 010°18'0 0.0
2015-Aug-27 09:33N 43°34' E 010°18'0 0.0
2015-Aug-27 08:33N 43°34' E 010°18'0 0.0
2015-Aug-27 07:33N 43°34' E 010°18'0 0.0
2015-Aug-26 21:31N 43°34' E 010°18'0 0.0
2015-Aug-26 20:18N 43°34' E 010°18'0 0.0
2015-Aug-26 18:30N 43°34' E 010°18'0 0.0
2015-Aug-26 17:33N 43°34' E 010°18'0 0.0
2015-Aug-26 13:19N 43°34' E 010°18'0 0.0
2015-Aug-26 12:33N 43°34' E 010°18'0 0.0
2015-Aug-26 11:33N 43°34' E 010°18'0 0.0
2015-Aug-26 10:33N 43°34' E 010°18'0 0.0
2015-Aug-26 09:33N 43°34' E 010°18'0 0.0
2015-Aug-26 08:26N 43°34' E 010°18'3 0.1
2015-Aug-25 13:27N 43°31' E 010°16'3 3.8
2015-Aug-25 12:34N 43°34' E 010°18'1 0.0
2015-Aug-24 14:14N 43°34' E 010°18'0 0.0
2015-Aug-24 13:33N 43°34' E 010°18'  
Track history (hours):
 
Tides and Currents Weather Stations Pressure Air Temp Water Temp Dewpoint Dewpoint Depression Visibility Wind Speed Wind Dir Waves Ship Positions

Porto Di Livorno

Last reported at 2015-Sep-03 06:33 UTC. Time now 2015-Sep-03 06:55 UTC.
Position N 43°33' E 010°18'.

Length 24 m; draft 6.1 m.

Type: Tug. MMSI: 247194299.

Date/timePositionNaut miles runAvg speedWind from/ knotsBaromVisibWave heightAir tempDewpointWater temp
2015-Sep-03 06:33N 43°33' E 010°18'0 0.0
2015-Sep-02 13:20N 43°33' E 010°17'2 2.4
2015-Sep-02 12:33N 43°35' E 010°18'1 1.0
2015-Sep-02 11:33N 43°34' E 010°18'0 0.0
2015-Sep-02 10:33N 43°34' E 010°18'0 0.0
2015-Sep-02 09:33N 43°34' E 010°18'0 0.0
2015-Sep-02 08:33N 43°34' E 010°18'0 0.0
2015-Sep-02 07:33N 43°34' E 010°18'0 0.0
2015-Sep-01 16:29N 43°34' E 010°18'0 0.0
2015-Sep-01 11:19N 43°34' E 010°18'0 0.0
2015-Sep-01 04:11N 43°34' E 010°18'0 0.0
2015-Aug-31 18:34N 43°34' E 010°18'1 0.4
2015-Aug-31 16:09N 43°34' E 010°19'2 3.7
2015-Aug-31 15:34N 43°33' E 010°17'3 2.1
2015-Aug-31 14:16N 43°35' E 010°19'1 0.8
2015-Aug-31 12:33N 43°34' E 010°18'0 0.0
2015-Aug-31 11:33N 43°34' E 010°18'1 1.1
2015-Aug-31 10:20N 43°32' E 010°17'1 1.7
2015-Aug-31 09:31N 43°34' E 010°18'0 0.0
2015-Aug-31 08:08N 43°34' E 010°18'0 0.7
2015-Aug-31 07:34N 43°34' E 010°18'0 0.3
2015-Aug-31 06:10N 43°34' E 010°18'1 0.5
2015-Aug-31 03:25N 43°32' E 010°17'1 0.7
2015-Aug-31 01:33N 43°34' E 010°18'0 0.0
2015-Aug-30 23:33N 43°34' E 010°18'0 0.0
2015-Aug-30 22:33N 43°34' E 010°18'0 0.0
2015-Aug-30 21:33N 43°34' E 010°18'0 0.0
2015-Aug-30 20:30N 43°34' E 010°18'0 0.0
2015-Aug-30 19:25N 43°34' E 010°18'0 0.0
2015-Aug-30 18:33N 43°34' E 010°18'0 0.0
2015-Aug-30 17:33N 43°34' E 010°18'0 0.0
2015-Aug-30 16:33N 43°34' E 010°18'0 0.0
2015-Aug-29 23:23N 43°34' E 010°18'0 0.0
2015-Aug-29 18:31N 43°34' E 010°18'1 0.6
2015-Aug-29 16:30N 43°35' E 010°19'1 1.2
2015-Aug-29 15:29N 43°34' E 010°18'1 1.1
2015-Aug-29 14:32N 43°33' E 010°17'1 1.0
2015-Aug-29 13:33N 43°34' E 010°18'0 0.0
2015-Aug-29 12:32N 43°34' E 010°18'0 0.1
2015-Aug-29 08:18N 43°34' E 010°18'0 0.1
2015-Aug-29 06:26N 43°34' E 010°18'1 0.0
2015-Aug-28 12:28N 43°34' E 010°18'0 0.0
2015-Aug-28 11:34N 43°34' E 010°18'1 0.9
2015-Aug-28 10:33N 43°35' E 010°18'1 0.7
2015-Aug-28 09:17N 43°34' E 010°18'0 0.0
2015-Aug-28 08:34N 43°34' E 010°18'0 0.0
2015-Aug-27 18:32N 43°34' E 010°18'0 0.0
2015-Aug-27 13:04N 43°34' E 010°18'0 0.0
2015-Aug-27 12:33N 43°34' E 010°18'0 0.0
2015-Aug-27 11:33N 43°34' E 010°18'0 0.0
2015-Aug-27 10:33N 43°34' E 010°18'0 0.0
2015-Aug-27 09:33N 43°34' E 010°18'0 0.0
2015-Aug-27 08:33N 43°34' E 010°18'0 0.0
2015-Aug-27 07:33N 43°34' E 010°18'0 0.0
2015-Aug-26 21:31N 43°34' E 010°18'0 0.0
2015-Aug-26 20:18N 43°34' E 010°18'0 0.0
2015-Aug-26 18:30N 43°34' E 010°18'0 0.0
2015-Aug-26 17:33N 43°34' E 010°18'0 0.0
2015-Aug-26 13:19N 43°34' E 010°18'0 0.0
2015-Aug-26 12:33N 43°34' E 010°18'0 0.0
2015-Aug-26 11:33N 43°34' E 010°18'0 0.0
2015-Aug-26 10:33N 43°34' E 010°18'0 0.0
2015-Aug-26 09:33N 43°34' E 010°18'0 0.0
2015-Aug-26 08:26N 43°34' E 010°18'3 0.1
2015-Aug-25 13:27N 43°31' E 010°16'3 3.8
2015-Aug-25 12:34N 43°34' E 010°18'1 0.0
2015-Aug-24 14:14N 43°34' E 010°18'0 0.0
2015-Aug-24 13:33N 43°34' E 010°18'  

Dump ship's entire track history